Time;durP1;ratioP1;P1;durP2;ratioP2;P2;SDS_P1;SDS_P2;PMS_P1;PMS_P2;Temp;Humidity;BMP_temperature;BMP_pressure;BME280_temperature;BME280_humidity;BME280_pressure;Samples;Min_cycle;Max_cycle;Signal;HPM_P1;HPM_P2
2023/05/18 00:01:39;;;;;;;13.05;4.10;;;;;;;6.72;88.38;102616.44;4857843;29;20037;-77
2023/05/18 00:04:05;;;;;;;9.52;3.80;;;;;;;6.70;88.71;102614.72;4854340;29;20398;-77
2023/05/18 00:06:30;;;;;;;19.45;4.72;;;;;;;6.67;88.93;102615.66;4861771;29;20069;-77
2023/05/18 00:08:55;;;;;;;16.98;4.20;;;;;;;6.67;89.00;102614.81;4860345;29;20026;-77
2023/05/18 00:11:20;;;;;;;13.82;4.05;;;;;;;6.59;88.84;102607.88;4859914;29;20041;-77
2023/05/18 00:13:46;;;;;;;16.10;4.32;;;;;;;6.58;88.46;102613.28;4858014;29;20401;-77
2023/05/18 00:16:12;;;;;;;14.48;4.25;;;;;;;6.57;88.64;102609.69;4858016;29;20049;-77
2023/05/18 00:18:37;;;;;;;22.08;5.53;;;;;;;6.53;87.66;102610.72;4859151;29;20029;-77
2023/05/18 00:21:03;;;;;;;12.65;4.10;;;;;;;6.51;88.64;102609.88;4859760;29;20056;-77
2023/05/18 00:23:29;;;;;;;13.23;4.35;;;;;;;6.47;88.88;102605.53;4861576;29;20040;-77
2023/05/18 00:25:58;;;;;;;13.93;4.38;;;;;;;6.44;89.05;102606.53;4857313;29;20550;-77
2023/05/18 00:28:25;;;;;;;16.33;4.63;;;;;;;6.39;88.51;102616.44;4861488;29;20034;-77
2023/05/18 00:30:50;;;;;;;13.63;4.28;;;;;;;6.37;89.11;102610.28;4854545;29;20079;-77
2023/05/18 00:33:16;;;;;;;18.30;4.90;;;;;;;6.36;89.63;102610.31;4861626;29;20033;-77
2023/05/18 00:35:41;;;;;;;17.92;4.20;;;;;;;6.39;89.44;102613.78;4856437;29;20060;-77
2023/05/18 00:38:07;;;;;;;18.48;4.45;;;;;;;6.36;88.92;102613.00;4858860;29;20441;-77
2023/05/18 00:40:32;;;;;;;17.13;3.88;;;;;;;6.31;88.82;102607.78;4853000;29;20085;-77
2023/05/18 00:42:59;;;;;;;13.38;4.30;;;;;;;6.26;88.80;102620.38;4854261;29;20379;-77
2023/05/18 00:45:25;;;;;;;15.93;4.35;;;;;;;6.22;89.42;102622.25;4852743;29;20129;-77
2023/05/18 00:47:50;;;;;;;16.95;4.50;;;;;;;6.19;89.36;102619.63;4859874;29;20481;-77
2023/05/18 00:50:16;;;;;;;16.00;4.35;;;;;;;6.17;89.53;102629.50;4858696;29;20117;-77
2023/05/18 00:52:42;;;;;;;13.60;3.42;;;;;;;6.14;89.90;102618.91;4856802;29;20034;-77
2023/05/18 00:55:11;;;;;;;15.70;4.30;;;;;;;6.16;90.34;102618.84;4856488;29;20037;-77
2023/05/18 00:57:37;;;;;;;15.07;4.22;;;;;;;6.15;90.24;102625.09;4852490;29;20069;-77
2023/05/18 01:00:05;;;;;;;15.63;4.35;;;;;;;6.13;89.38;102625.16;4852738;29;20080;-77
2023/05/18 01:02:30;;;;;;;20.27;4.57;;;;;;;6.11;89.63;102622.53;4860007;29;20041;-77
2023/05/18 01:04:55;;;;;;;17.85;5.15;;;;;;;6.08;89.98;102624.41;4861301;29;20052;-77
2023/05/18 01:07:25;;;;;;;12.20;3.85;;;;;;;6.06;90.59;102620.88;4860500;29;20375;-77
2023/05/18 01:09:51;;;;;;;16.23;4.88;;;;;;;6.00;90.44;102626.38;4852714;29;20600;-77
2023/05/18 01:12:28;;;;;;;17.65;4.32;;;;;;;6.00;90.85;102621.91;4861554;29;20498;-77
2023/05/18 01:15:02;;;;;;;13.10;4.28;;;;;;;6.00;90.45;102632.59;4849689;29;20030;-77
2023/05/18 01:17:46;;;;;;;15.32;4.55;;;;;;;5.99;91.22;102630.84;4857917;29;20057;-77
2023/05/18 01:21:09;;;;;;;16.17;4.82;;;;;;;6.04;89.95;102622.72;4855026;29;20033;-77
2023/05/18 01:24:04;;;;;;;22.77;5.20;;;;;;;5.98;91.09;102629.09;4805918;29;20042;-77
2023/05/18 01:26:36;;;;;;;19.42;5.18;;;;;;;5.98;91.02;102628.22;4797238;29;20539;-77
2023/05/18 01:29:05;;;;;;;12.90;4.65;;;;;;;5.92;90.85;102624.75;4821461;29;20035;-77
2023/05/18 01:31:31;;;;;;;16.55;4.53;;;;;;;5.94;91.51;102627.38;4804451;29;20047;-77
2023/05/18 01:33:56;;;;;;;16.35;4.47;;;;;;;5.92;91.85;102623.88;4807241;29;20487;-77
2023/05/18 01:36:21;;;;;;;16.63;4.85;;;;;;;5.92;91.08;102624.75;4821709;29;20039;-77
2023/05/18 01:38:47;;;;;;;20.17;4.82;;;;;;;5.92;91.77;102619.41;4821001;29;20090;-77
2023/05/18 01:41:23;;;;;;;13.30;4.50;;;;;;;5.97;91.11;102626.44;4818046;29;20451;-77
2023/05/18 01:44:17;;;;;;;16.65;4.82;;;;;;;6.02;90.48;102629.88;4806431;29;20039;-77
2023/05/18 01:46:49;;;;;;;18.27;4.30;;;;;;;5.98;90.92;102628.22;4804073;29;20545;-77
2023/05/18 01:49:37;;;;;;;19.00;4.55;;;;;;;5.98;90.76;102623.75;4804422;29;20155;-77
2023/05/18 01:52:07;;;;;;;12.32;4.32;;;;;;;5.94;90.69;102622.94;4817811;29;20038;-77
2023/05/18 01:54:36;;;;;;;15.65;4.55;;;;;;;5.99;90.82;102630.84;4805603;29;20038;-77
2023/05/18 01:57:05;;;;;;;19.20;4.65;;;;;;;5.92;90.78;102627.41;4824649;29;20431;-77
2023/05/18 01:59:30;;;;;;;18.70;4.90;;;;;;;5.87;90.74;102632.00;4858157;29;20033;-77
2023/05/18 02:01:59;;;;;;;16.77;4.72;;;;;;;5.86;91.13;102624.91;4858827;29;20478;-77
2023/05/18 02:04:25;;;;;;;18.77;4.55;;;;;;;5.86;91.20;102624.91;4852865;29;20044;-77
2023/05/18 02:06:53;;;;;;;16.70;4.75;;;;;;;5.83;91.60;102625.00;4854233;29;20487;-77
2023/05/18 02:09:18;;;;;;;15.68;4.65;;;;;;;5.81;91.73;102617.94;4854423;29;20570;-77
2023/05/18 02:11:45;;;;;;;13.85;4.40;;;;;;;5.75;91.75;102621.63;4860199;29;20068;-77
2023/05/18 02:14:10;;;;;;;15.95;3.95;;;;;;;5.75;91.87;102616.28;4854925;29;20030;-77
2023/05/18 02:16:36;;;;;;;14.70;4.53;;;;;;;5.71;92.06;102619.94;4856969;29;20049;-77
2023/05/18 02:19:02;;;;;;;10.10;4.18;;;;;;;5.70;92.15;102613.72;4858773;29;20029;-77
2023/05/18 02:21:27;;;;;;;12.63;3.95;;;;;;;5.68;92.57;102610.25;4851131;29;20511;-77
2023/05/18 02:23:52;;;;;;;13.57;4.03;;;;;;;5.70;92.79;102613.72;4855431;29;20021;-77
2023/05/18 02:26:18;;;;;;;16.00;4.65;;;;;;;5.66;92.52;102612.06;4857073;29;20127;-77
2023/05/18 02:28:43;;;;;;;17.30;4.45;;;;;;;5.69;92.51;102608.44;4859121;29;20104;-77
2023/05/18 02:31:12;;;;;;;16.77;5.05;;;;;;;5.65;92.28;102607.66;4860274;29;20516;-77
2023/05/18 02:33:41;;;;;;;20.02;5.18;;;;;;;5.68;92.89;102612.00;4860180;29;20144;-77
2023/05/18 02:36:11;;;;;;;14.02;4.38;;;;;;;5.68;92.57;102606.69;4849756;29;20113;-77
2023/05/18 02:38:41;;;;;;;;;;;;;;;5.82;90.70;102604.56;4854383;29;20037;-77
2023/05/18 02:41:07;;;;;;;12.30;4.07;;;;;;;5.69;92.68;102605.78;4858133;29;19916;-77
2023/05/18 02:43:32;;;;;;;17.60;4.60;;;;;;;5.67;92.03;102596.94;4858757;29;20029;-77
2023/05/18 02:45:57;;;;;;;14.82;4.20;;;;;;;5.63;91.96;102597.94;4859809;29;20777;-77
2023/05/18 02:48:23;;;;;;;16.05;4.63;;;;;;;5.62;92.53;102598.81;4857349;29;20052;-77
2023/05/18 02:50:48;;;;;;;15.63;4.93;;;;;;;5.57;92.70;102599.81;4857198;29;20025;-77
2023/05/18 02:53:14;;;;;;;16.20;4.82;;;;;;;5.58;92.85;102598.91;4858861;29;20043;-77
2023/05/18 02:55:40;;;;;;;15.30;4.97;;;;;;;5.56;92.66;102603.41;4858367;29;20030;-77
2023/05/18 02:58:05;;;;;;;15.48;4.90;;;;;;;5.55;92.36;102595.41;4856905;29;20037;-77
2023/05/18 03:00:31;;;;;;;15.20;4.68;;;;;;;5.55;93.12;102592.75;4858180;29;20032;-77
2023/05/18 03:02:56;;;;;;;18.40;4.57;;;;;;;5.54;93.23;102602.56;4859554;29;20036;-77
2023/05/18 03:05:22;;;;;;;15.82;4.45;;;;;;;5.51;92.85;102597.31;4857194;29;20064;-77
2023/05/18 03:07:49;;;;;;;13.68;4.57;;;;;;;5.49;92.33;102598.25;4852342;29;20075;-77
2023/05/18 03:10:15;;;;;;;14.25;4.60;;;;;;;5.45;92.76;102600.13;4853462;29;20573;-77
2023/05/18 03:12:41;;;;;;;22.45;5.22;;;;;;;5.45;92.76;102601.88;4854374;29;20026;-77
2023/05/18 03:15:07;;;;;;;17.60;5.45;;;;;;;5.44;92.87;102606.34;4857031;29;20034;-77
2023/05/18 03:17:32;;;;;;;15.93;4.90;;;;;;;5.42;92.83;102602.88;4857026;29;20056;-77
2023/05/18 03:19:57;;;;;;;17.67;5.32;;;;;;;5.38;92.93;102599.38;4855480;29;20616;-77
2023/05/18 03:22:23;;;;;;;15.77;4.93;;;;;;;5.37;92.81;102599.41;4860607;29;20034;-77
2023/05/18 03:24:50;;;;;;;11.05;4.15;;;;;;;5.37;92.59;102602.06;4861407;29;20117;-77
2023/05/18 03:27:17;;;;;;;20.88;5.30;;;;;;;5.36;92.68;102594.97;4861604;29;20021;-77
2023/05/18 03:29:42;;;;;;;15.80;4.93;;;;;;;5.35;93.06;102607.44;4861068;29;20348;-77
2023/05/18 03:32:08;;;;;;;15.63;4.72;;;;;;;5.32;93.17;102606.66;4858627;29;20037;-77
2023/05/18 03:34:33;;;;;;;15.30;5.07;;;;;;;5.28;93.07;102594.31;4857174;29;20511;-77
2023/05/18 03:36:59;;;;;;;16.73;5.20;;;;;;;5.25;93.31;102600.56;4860511;29;20072;-77
2023/05/18 03:39:24;;;;;;;17.98;5.32;;;;;;;5.25;93.22;102603.25;4860491;29;20525;-77
2023/05/18 03:41:50;;;;;;;19.95;5.63;;;;;;;5.23;92.48;102603.28;4857873;29;20033;-77
2023/05/18 03:44:15;;;;;;;18.27;4.57;;;;;;;5.21;93.29;102604.22;4861160;29;20084;-77
2023/05/18 03:46:40;;;;;;;14.82;4.25;;;;;;;5.20;93.00;102598.00;4862370;29;20058;-77
2023/05/18 03:49:06;;;;;;;16.20;4.57;;;;;;;5.21;92.71;102599.78;4854507;29;20157;-77
2023/05/18 03:51:32;;;;;;;20.23;5.43;;;;;;;5.16;93.59;102601.66;4855358;29;20033;-77
2023/05/18 03:53:57;;;;;;;19.58;5.32;;;;;;;5.16;93.65;102607.00;4862777;29;20033;-77
2023/05/18 03:56:23;;;;;;;19.05;4.88;;;;;;;5.17;92.97;102608.75;4854062;29;20033;-77
2023/05/18 03:58:50;;;;;;;17.90;5.18;;;;;;;5.17;92.76;102606.09;4854228;29;20504;-77
2023/05/18 04:01:17;;;;;;;15.15;4.78;;;;;;;5.17;93.89;102608.75;4861888;29;20049;-77
2023/05/18 04:03:43;;;;;;;15.23;4.95;;;;;;;5.16;93.98;102609.66;4855449;29;20021;-77
2023/05/18 04:06:09;;;;;;;14.85;4.55;;;;;;;5.18;94.00;102612.28;4853988;29;20049;-77
2023/05/18 04:08:35;;;;;;;14.25;4.75;;;;;;;5.22;94.54;102612.16;4858083;29;20025;-77
2023/05/18 04:11:01;;;;;;;17.60;5.00;;;;;;;5.20;94.98;102621.16;4861661;29;20584;-77
2023/05/18 04:13:26;;;;;;;16.38;4.78;;;;;;;5.25;94.16;102624.56;4859928;29;20026;-77
2023/05/18 04:15:51;;;;;;;18.08;5.43;;;;;;;5.25;93.79;102625.44;4860029;29;20049;-77
2023/05/18 04:18:17;;;;;;;14.77;4.60;;;;;;;5.28;94.32;102627.16;4860825;29;20391;-77
2023/05/18 04:20:44;;;;;;;16.08;4.57;;;;;;;5.28;94.07;102626.28;4861054;29;20029;-77
2023/05/18 04:23:11;;;;;;;15.25;4.78;;;;;;;5.29;94.15;102622.72;4855256;29;20033;-77
2023/05/18 04:25:38;;;;;;;16.73;4.53;;;;;;;5.30;94.45;102633.34;4854511;29;20037;-77
2023/05/18 04:28:03;;;;;;;18.02;5.60;;;;;;;5.35;94.97;102633.25;4858897;29;20040;-77
2023/05/18 04:30:29;;;;;;;15.00;4.43;;;;;;;5.32;94.86;102627.97;4855183;29;20397;-77
2023/05/18 04:32:57;;;;;;;15.07;5.10;;;;;;;5.35;95.32;102630.56;4855600;29;20038;-77
2023/05/18 04:35:24;;;;;;;16.55;4.97;;;;;;;5.36;95.36;102632.31;4858489;29;20056;-77
2023/05/18 04:37:49;;;;;;;14.10;5.20;;;;;;;5.39;94.94;102632.25;4860137;29;20033;-77
2023/05/18 04:40:15;;;;;;;22.27;5.88;;;;;;;5.40;95.90;102642.00;4858065;29;20116;-77
2023/05/18 04:42:44;;;;;;;18.63;5.57;;;;;;;5.40;96.12;102634.91;4860454;29;20026;-77
2023/05/18 04:45:11;;;;;;;18.20;4.72;;;;;;;5.43;95.90;102639.25;4859947;29;20029;-77
2023/05/18 04:47:37;;;;;;;17.65;5.85;;;;;;;5.46;96.82;102633.88;4859783;29;20044;-77
2023/05/18 04:50:03;;;;;;;16.67;5.70;;;;;;;5.52;97.20;102636.41;4856352;29;20406;-77
2023/05/18 04:52:29;;;;;;;18.90;5.32;;;;;;;5.53;97.37;102637.25;4859044;29;20101;-77
2023/05/18 04:54:55;;;;;;;16.98;4.90;;;;;;;5.55;97.93;102647.00;4862071;29;20104;-77
2023/05/18 04:57:20;;;;;;;16.35;4.80;;;;;;;5.58;96.88;102635.38;4858544;29;20168;-77
2023/05/18 04:59:46;;;;;;;17.52;5.25;;;;;;;5.67;97.72;102639.63;4857277;29;20025;-77
2023/05/18 05:02:11;;;;;;;15.48;5.20;;;;;;;5.70;97.56;102643.09;4858518;29;20029;-77
2023/05/18 05:04:37;;;;;;;20.65;6.07;;;;;;;5.75;97.67;102643.88;4858514;29;20436;-77
2023/05/18 05:07:02;;;;;;;22.58;5.47;;;;;;;5.80;97.03;102651.75;4855170;29;20029;-77
2023/05/18 05:09:27;;;;;;;15.85;5.10;;;;;;;5.87;97.97;102644.44;4861295;29;20037;-77
2023/05/18 05:11:55;;;;;;;19.50;5.80;;;;;;;5.92;97.92;102643.44;4859330;29;20099;-77
2023/05/18 05:14:20;;;;;;;23.90;6.10;;;;;;;6.01;97.66;102646.81;4859687;29;20033;-77
2023/05/18 05:16:45;;;;;;;22.58;6.38;;;;;;;6.08;95.75;102643.09;4857097;29;20102;-77
2023/05/18 05:19:11;;;;;;;20.25;5.53;;;;;;;6.09;95.68;102636.81;4856524;29;20049;-77
2023/05/18 05:21:36;;;;;;;19.27;6.20;;;;;;;6.14;93.96;102645.59;4858136;29;20119;-77
2023/05/18 05:24:03;;;;;;;17.50;5.72;;;;;;;6.23;94.22;102649.81;4860907;29;20117;-77
2023/05/18 05:26:29;;;;;;;20.00;6.13;;;;;;;6.30;92.44;102649.59;4858824;29;20124;-78
2023/05/18 05:28:54;;;;;;;18.60;5.90;;;;;;;6.38;93.20;102652.06;4856430;29;20486;-77
2023/05/18 05:31:19;;;;;;;17.75;5.20;;;;;;;6.43;93.45;102643.97;4856530;29;20037;-77
2023/05/18 05:33:44;;;;;;;24.10;6.70;;;;;;;6.47;93.59;102648.28;4853116;29;20454;-78
2023/05/18 05:36:10;;;;;;;24.80;6.75;;;;;;;6.53;93.41;102645.47;4859232;29;20119;-77
2023/05/18 05:38:36;;;;;;;19.85;5.72;;;;;;;6.59;91.64;102645.28;4858739;29;20483;-78
2023/05/18 05:41:01;;;;;;;17.23;5.53;;;;;;;6.67;93.06;102645.06;4856707;29;20386;-78
2023/05/18 05:43:26;;;;;;;18.40;5.57;;;;;;;6.74;91.33;102640.44;4859904;29;20040;-77
2023/05/18 05:45:53;;;;;;;20.98;6.65;;;;;;;6.82;90.83;102649.09;4859037;29;20033;-77
2023/05/18 05:48:18;;;;;;;20.13;8.13;;;;;;;6.88;92.89;102645.38;4858410;29;20116;-77
2023/05/18 05:50:43;;;;;;;23.38;6.60;;;;;;;6.94;91.14;102643.41;4850097;29;20540;-77
2023/05/18 05:53:09;;;;;;;20.02;6.18;;;;;;;7.00;90.25;102637.88;4859044;29;20042;-78
2023/05/18 05:55:40;;;;;;;17.90;5.97;;;;;;;7.10;90.08;102642.94;4857149;29;20081;-78
2023/05/18 05:58:07;;;;;;;20.95;6.88;;;;;;;7.14;90.00;102650.81;4860566;29;20037;-77
2023/05/18 06:00:32;;;;;;;18.55;6.07;;;;;;;7.19;87.32;102648.03;4853006;29;20025;-78
2023/05/18 06:02:58;;;;;;;17.25;5.60;;;;;;;7.27;87.85;102656.69;4856875;29;20391;-78
2023/05/18 06:05:23;;;;;;;19.27;6.82;;;;;;;7.31;88.03;102647.66;4859226;29;20034;-78
2023/05/18 06:07:49;;;;;;;19.70;6.63;;;;;;;7.38;88.06;102650.13;4851603;29;20026;-78
2023/05/18 06:10:14;;;;;;;20.33;6.25;;;;;;;7.43;88.12;102650.88;4858517;29;20570;-77
2023/05/18 06:12:40;;;;;;;20.42;6.70;;;;;;;7.49;85.35;102650.66;4857620;29;20037;-77
2023/05/18 06:15:06;;;;;;;26.73;7.45;;;;;;;7.53;85.32;102649.66;4859420;29;20036;-78
2023/05/18 06:17:31;;;;;;;20.13;7.05;;;;;;;7.61;84.59;102650.28;4849878;29;20049;-78
2023/05/18 06:19:56;;;;;;;24.30;6.70;;;;;;;7.67;85.26;102655.44;4858758;29;20439;-78
2023/05/18 06:22:22;;;;;;;23.67;6.68;;;;;;;7.77;83.51;102655.16;4858349;29;20090;-78
2023/05/18 06:24:48;;;;;;;21.30;7.50;;;;;;;7.82;83.63;102655.88;4852098;29;20286;-78
2023/05/18 06:27:13;;;;;;;16.95;5.75;;;;;;;7.90;83.91;102656.50;4855585;29;20033;-78
2023/05/18 06:29:38;;;;;;;18.52;5.97;;;;;;;8.00;82.18;102657.06;4851482;29;20037;-78
2023/05/18 06:32:04;;;;;;;25.13;7.40;;;;;;;8.09;81.32;102655.88;4858638;29;20033;-78
2023/05/18 06:34:30;;;;;;;19.65;6.97;;;;;;;8.20;82.58;102657.28;4857356;29;20037;-77
2023/05/18 06:36:55;;;;;;;22.45;6.72;;;;;;;8.31;80.83;102667.59;4858521;29;20036;-78
2023/05/18 06:39:20;;;;;;;23.73;6.82;;;;;;;8.37;80.60;102661.16;4857126;29;20120;-78
2023/05/18 06:41:46;;;;;;;19.77;6.63;;;;;;;8.43;79.32;102666.28;4854849;29;20025;-78
2023/05/18 06:44:11;;;;;;;20.95;6.35;;;;;;;8.51;80.15;102666.09;4858766;29;20034;-77
2023/05/18 06:46:37;;;;;;;20.00;7.32;;;;;;;8.57;79.82;102671.22;4855046;29;20475;-78
2023/05/18 06:49:03;;;;;;;23.25;7.38;;;;;;;8.67;80.40;102671.78;4861199;29;20033;-81
2023/05/18 06:51:30;;;;;;;25.02;5.80;;;;;;;8.72;78.78;102661.75;4859074;29;20517;-77
2023/05/18 06:53:55;;;;;;;21.95;6.13;;;;;;;8.76;78.26;102668.75;4860159;29;20034;-78
2023/05/18 06:56:21;;;;;;;22.65;6.20;;;;;;;8.83;77.57;102669.38;4858312;29;20029;-78
2023/05/18 06:58:46;;;;;;;27.05;6.43;;;;;;;8.90;77.15;102665.53;4849809;29;20116;-78
2023/05/18 07:01:11;;;;;;;23.35;6.45;;;;;;;8.99;75.64;102669.69;4853099;29;20040;-78
2023/05/18 07:03:37;;;;;;;22.15;6.65;;;;;;;9.08;79.16;102670.22;4852405;29;20033;-78
2023/05/18 07:06:03;;;;;;;21.90;6.78;;;;;;;9.19;78.59;102674.31;4852998;29;20033;-78
2023/05/18 07:08:29;;;;;;;20.10;6.93;;;;;;;9.26;79.34;102667.78;4852322;29;20037;-78
2023/05/18 07:10:56;;;;;;;19.45;6.47;;;;;;;9.34;77.17;102676.41;4856773;29;20056;-78
2023/05/18 07:13:22;;;;;;;24.70;7.00;;;;;;;9.39;75.31;102677.09;4850246;29;20042;-78
2023/05/18 07:15:47;;;;;;;17.98;6.22;;;;;;;9.47;77.25;102679.47;4852389;29;20049;-78
2023/05/18 07:18:12;;;;;;;18.80;5.95;;;;;;;9.51;77.22;102677.56;4854383;29;20506;-78
2023/05/18 07:20:38;;;;;;;21.35;7.10;;;;;;;9.55;74.98;102680.06;4854709;29;20047;-78
2023/05/18 07:23:03;;;;;;;21.45;6.68;;;;;;;9.61;76.20;102685.19;4855192;29;20030;-77
2023/05/18 07:25:29;;;;;;;21.85;6.47;;;;;;;9.63;75.17;102687.81;4858104;29;20037;-78
2023/05/18 07:27:54;;;;;;;18.55;6.70;;;;;;;9.69;76.26;102692.91;4851098;29;20479;-78
2023/05/18 07:30:20;;;;;;;20.40;5.88;;;;;;;9.73;75.75;102689.19;4853632;29;20034;-77
2023/05/18 07:32:46;;;;;;;25.40;7.15;;;;;;;9.77;73.68;102685.44;4851001;29;20037;-78
2023/05/18 07:35:11;;;;;;;17.80;6.53;;;;;;;9.82;73.35;102681.69;4859259;29;20029;-78
2023/05/18 07:37:37;;;;;;;18.80;6.00;;;;;;;9.90;74.38;102687.63;4858047;29;20033;-78
2023/05/18 07:40:03;;;;;;;20.75;6.93;;;;;;;9.97;71.55;102691.78;4854820;29;20034;-78
2023/05/18 07:42:29;;;;;;;24.17;7.20;;;;;;;10.00;71.58;102696.19;4853380;29;20117;-78
2023/05/18 07:44:55;;;;;;;20.70;6.00;;;;;;;10.03;70.97;102691.56;4860564;29;20124;-78
2023/05/18 07:47:20;;;;;;;19.98;6.85;;;;;;;10.10;73.21;102698.44;4850364;29;20462;-78
2023/05/18 07:49:46;;;;;;;21.83;7.30;;;;;;;10.14;72.44;102700.03;4855686;29;20026;-78
2023/05/18 07:52:11;;;;;;;18.33;6.20;;;;;;;10.19;71.58;102704.34;4856119;29;20055;-78
2023/05/18 07:54:37;;;;;;;21.17;7.20;;;;;;;10.22;72.72;102701.53;4856392;29;20096;-81
2023/05/18 07:57:03;;;;;;;20.95;6.68;;;;;;;10.26;71.54;102698.66;4864665;29;20029;-79
2023/05/18 07:59:28;;;;;;;16.77;6.10;;;;;;;10.32;69.84;102702.88;4855293;29;20529;-79
2023/05/18 08:01:53;;;;;;;17.75;6.93;;;;;;;10.39;74.32;102703.53;4851763;29;20398;-78
2023/05/18 08:04:19;;;;;;;21.38;7.10;;;;;;;10.42;72.74;102706.09;4851956;29;20037;-78
2023/05/18 08:06:44;;;;;;;26.80;7.45;;;;;;;10.46;72.50;102708.59;4850785;29;20041;-78
2023/05/18 08:09:09;;;;;;;20.38;6.90;;;;;;;10.45;72.56;102704.16;4857541;29;20074;-78
2023/05/18 08:11:35;;;;;;;20.80;7.07;;;;;;;10.47;70.97;102704.09;4859089;29;20405;-78
2023/05/18 08:14:00;;;;;;;24.08;6.47;;;;;;;10.54;73.71;102710.97;4854099;29;20029;-78
2023/05/18 08:16:25;;;;;;;19.05;7.03;;;;;;;10.59;70.83;102711.63;4855124;29;20049;-78
2023/05/18 08:18:51;;;;;;;19.98;6.53;;;;;;;10.62;70.98;102710.63;4860777;29;20032;-78
2023/05/18 08:21:16;;;;;;;21.08;7.63;;;;;;;10.68;72.88;102704.97;4857042;29;20113;-78
2023/05/18 08:23:41;;;;;;;20.52;6.55;;;;;;;10.71;69.06;102703.97;4851967;29;20037;-78
2023/05/18 08:26:07;;;;;;;23.23;6.97;;;;;;;10.78;73.99;102698.25;4857742;29;20080;-78
2023/05/18 08:28:33;;;;;;;17.90;6.50;;;;;;;10.80;70.77;102695.47;4857308;29;20081;-78
2023/05/18 08:30:58;;;;;;;22.90;7.30;;;;;;;10.86;73.69;102697.03;4852832;29;20049;-78
2023/05/18 08:33:24;;;;;;;19.73;6.88;;;;;;;10.93;70.68;102695.81;4857313;29;20077;-78
2023/05/18 08:35:50;;;;;;;19.30;5.97;;;;;;;10.94;65.71;102692.19;4854927;29;20108;-78
2023/05/18 08:38:18;;;;;;;18.73;6.60;;;;;;;11.03;68.82;102694.44;4850137;29;20034;-78
2023/05/18 08:41:00;;;;;;;21.83;6.15;;;;;;;11.09;68.43;102688.78;4857694;29;20040;-78
2023/05/18 08:43:32;;;;;;;20.08;6.93;;;;;;;11.14;68.93;102680.47;4853891;29;20032;-78
2023/05/18 08:46:09;;;;;;;21.08;6.82;;;;;;;11.31;71.45;102682.41;4859331;29;20137;-78
2023/05/18 08:48:35;;;;;;;18.63;6.75;;;;;;;11.35;66.48;102684.88;4854122;29;20108;-78
2023/05/18 08:51:04;;;;;;;17.85;6.88;;;;;;;11.47;69.66;102679.84;4856787;29;20120;-79
2023/05/18 08:53:32;;;;;;;23.83;6.47;;;;;;;11.51;64.53;102676.06;4853978;29;20116;-78
2023/05/18 08:55:58;;;;;;;17.73;5.68;;;;;;;11.57;64.34;102673.09;4855447;29;20447;-78
2023/05/18 08:58:43;;;;;;;17.85;5.90;;;;;;;11.64;65.77;102679.03;4854796;29;20041;-83
2023/05/18 09:01:09;;;;;;;17.63;6.03;;;;;;;11.64;65.96;102679.03;4852262;29;20530;-78
2023/05/18 09:03:36;;;;;;;18.48;5.93;;;;;;;11.67;63.43;102671.69;4851671;29;20067;-78
2023/05/18 09:06:02;;;;;;;18.13;5.40;;;;;;;11.72;64.15;102676.84;4850009;29;20026;-77
2023/05/18 09:08:28;;;;;;;17.52;5.18;;;;;;;11.76;63.87;102681.13;4858687;29;20030;-78
2023/05/18 09:10:56;;;;;;;16.02;5.97;;;;;;;11.82;62.91;102678.13;4857215;29;20030;-77
2023/05/18 09:13:22;;;;;;;18.85;5.63;;;;;;;11.87;63.47;102673.41;4850925;29;20030;-77
2023/05/18 09:15:47;;;;;;;17.98;5.50;;;;;;;11.91;60.59;102676.81;4848914;29;20530;-79
2023/05/18 09:18:13;;;;;;;21.45;5.90;;;;;;;11.87;62.56;102665.31;4854374;29;20128;-78
2023/05/18 09:20:38;;;;;;;16.77;5.20;;;;;;;11.92;62.21;102665.09;4852668;29;20041;-78
2023/05/18 09:23:04;;;;;;;23.20;5.80;;;;;;;12.06;66.90;102669.81;4850729;29;20038;-79
2023/05/18 09:25:31;;;;;;;18.60;6.00;;;;;;;12.19;66.23;102670.91;4856616;29;20398;-78
2023/05/18 09:27:56;;;;;;;20.48;5.47;;;;;;;12.19;57.64;102676.31;4853744;29;20038;-78
2023/05/18 09:30:23;;;;;;;15.35;5.85;;;;;;;12.30;58.05;102674.88;4856147;29;20418;-78
2023/05/18 09:32:51;;;;;;;14.13;4.72;;;;;;;12.38;58.82;102665.44;4856884;29;20033;-78
2023/05/18 09:35:17;;;;;;;19.08;5.55;;;;;;;12.49;58.97;102667.63;4853457;29;20025;-78
2023/05/18 09:37:42;;;;;;;19.20;5.72;;;;;;;12.57;58.65;102667.19;4853709;29;20033;-78
2023/05/18 09:40:09;;;;;;;24.25;6.13;;;;;;;12.65;60.55;102669.47;4852338;29;20702;-79
2023/05/18 09:42:34;;;;;;;20.48;5.80;;;;;;;12.73;62.99;102664.56;4861230;29;20086;-78
2023/05/18 09:45:00;;;;;;;14.85;5.63;;;;;;;12.76;62.56;102661.69;4859732;29;20041;-77
2023/05/18 09:47:26;;;;;;;19.80;5.70;;;;;;;12.82;59.75;102658.66;4852097;29;20057;-79
2023/05/18 09:49:51;;;;;;;19.48;6.10;;;;;;;12.87;60.92;102656.59;4855980;29;20058;-78
2023/05/18 09:52:17;;;;;;;18.48;6.28;;;;;;;12.91;60.19;102655.50;4859759;29;20390;-78
2023/05/18 09:54:43;;;;;;;17.95;5.85;;;;;;;12.90;59.56;102651.03;4852232;29;20048;-80
2023/05/18 09:57:09;;;;;;;18.60;6.07;;;;;;;12.98;61.73;102645.22;4852460;29;20112;-79
2023/05/18 09:59:35;;;;;;;19.77;6.03;;;;;;;13.02;59.45;102648.63;4858820;29;20026;-79
2023/05/18 10:02:04;;;;;;;15.50;4.82;;;;;;;13.07;58.71;102643.84;4855227;29;20056;-79
2023/05/18 10:04:38;;;;;;;16.35;5.28;;;;;;;13.06;57.40;102656.47;4858504;29;20128;-79
2023/05/18 10:07:14;;;;;;;25.73;6.53;;;;;;;13.10;58.84;102649.06;4856126;29;20486;-80
2023/05/18 10:09:40;;;;;;;22.45;6.38;;;;;;;13.13;61.02;102646.19;4857697;29;20033;-78
2023/05/18 10:12:13;;;;;;;20.52;5.72;;;;;;;13.14;58.73;102642.53;4862860;29;20033;-78
2023/05/18 10:14:43;;;;;;;16.80;5.80;;;;;;;13.18;56.37;102638.72;4862593;29;20037;-77
2023/05/18 10:17:11;;;;;;;21.63;6.05;;;;;;;13.21;57.39;102633.16;4854040;29;20081;-77
2023/05/18 10:19:38;;;;;;;19.83;5.40;;;;;;;13.33;62.04;102638.81;4853615;29;20029;-78
2023/05/18 10:22:05;;;;;;;18.27;5.13;;;;;;;13.32;58.88;102634.38;4850082;29;20036;-78
2023/05/18 10:24:37;;;;;;;16.92;5.63;;;;;;;13.33;59.49;102638.81;4855989;29;20486;-78
2023/05/18 10:27:06;;;;;;;18.08;6.25;;;;;;;13.29;55.26;102630.00;4845373;29;20119;-77
2023/05/18 10:29:32;;;;;;;;;;;;;;;13.35;59.93;102628.81;4848520;29;20034;-76
2023/05/18 10:32:01;;;;;;;19.67;5.78;;;;;;;13.23;60.36;102633.06;4856867;29;20483;-77
2023/05/18 10:34:31;;;;;;;16.40;4.97;;;;;;;13.17;54.66;102638.81;4851381;29;20029;-77
2023/05/18 10:36:59;;;;;;;18.27;5.43;;;;;;;13.10;55.03;102625.66;4849634;29;20029;-77
2023/05/18 10:39:25;;;;;;;14.35;5.10;;;;;;;13.07;53.47;102625.81;4851176;29;20025;-80
2023/05/18 10:41:54;;;;;;;14.73;5.10;;;;;;;13.10;55.36;102625.66;4851414;29;20161;-79
2023/05/18 10:44:22;;;;;;;21.23;5.72;;;;;;;13.07;54.94;102627.63;4849774;29;20053;-77
2023/05/18 10:46:49;;;;;;;24.42;6.03;;;;;;;13.11;57.60;102618.41;4849402;29;20458;-79
2023/05/18 10:49:16;;;;;;;20.00;6.00;;;;;;;13.13;57.25;102619.19;4855477;29;20116;-76
2023/05/18 10:51:45;;;;;;;18.25;5.25;;;;;;;13.13;57.05;102624.59;4852104;29;20029;-78
2023/05/18 10:54:12;;;;;;;15.20;5.22;;;;;;;13.13;57.07;102624.59;4850025;29;20033;-77
2023/05/18 10:56:41;;;;;;;18.95;5.65;;;;;;;13.14;56.63;102623.63;4849388;29;20033;-78
2023/05/18 10:59:07;;;;;;;17.95;5.70;;;;;;;13.10;56.77;102613.97;4859862;29;20037;-76
2023/05/18 11:01:33;;;;;;;20.50;5.85;;;;;;;13.09;57.01;102614.94;4849102;29;20087;-76
2023/05/18 11:04:03;;;;;;;16.77;5.32;;;;;;;13.10;58.33;102612.16;4845642;29;20053;-77
2023/05/18 11:06:28;;;;;;;20.65;5.80;;;;;;;13.16;57.29;102608.22;4850681;29;20042;-78
2023/05/18 11:08:53;;;;;;;18.17;5.70;;;;;;;13.22;56.98;102616.00;4851155;29;20089;-79
2023/05/18 11:11:23;;;;;;;19.50;5.80;;;;;;;13.24;56.73;102614.06;4857587;29;20033;-77
2023/05/18 11:13:52;;;;;;;18.38;6.18;;;;;;;13.32;59.91;102607.38;4855408;29;20116;-76
2023/05/18 11:16:19;;;;;;;20.58;6.00;;;;;;;13.31;57.58;102611.91;4854822;29;20518;-74
2023/05/18 11:18:49;;;;;;;21.92;6.78;;;;;;;13.32;58.02;102608.22;4855830;29;20034;-80
2023/05/18 11:21:35;;;;;;;15.27;4.82;;;;;;;13.31;59.57;102616.41;4854419;29;20118;-80
2023/05/18 11:24:25;;;;;;;21.63;6.72;;;;;;;13.32;55.86;102602.81;4837337;29;20049;-79